Time;durP1;ratioP1;P1;durP2;ratioP2;P2;SDS_P1;SDS_P2;PMS_P1;PMS_P2;Temp;Humidity;BMP_temperature;BMP_pressure;BME280_temperature;BME280_humidity;BME280_pressure;Samples;Min_cycle;Max_cycle;Signal;HPM_P1;HPM_P2
2022/08/26 00:00:01;;;;;;;1.02;0.80;;;;;;;28.53;46.83;98402.72;2100949;28;20056;-48
2022/08/26 00:01:02;;;;;;;0.95;0.88;;;;;;;28.54;46.89;98398.88;2096726;28;20059;-46
2022/08/26 00:02:04;;;;;;;1.08;0.80;;;;;;;28.54;46.86;98398.06;2098105;28;20424;-46
2022/08/26 00:03:05;;;;;;;0.90;0.70;;;;;;;28.54;46.98;98398.88;2099791;28;20391;-45
2022/08/26 00:04:07;;;;;;;1.20;1.10;;;;;;;28.51;46.97;98393.97;2100313;28;20062;-47
2022/08/26 00:05:08;;;;;;;1.67;0.85;;;;;;;28.52;46.95;98393.69;2098866;28;20657;-47
2022/08/26 00:06:12;;;;;;;1.20;1.00;;;;;;;28.53;47.06;98408.19;2100835;28;20140;-47
2022/08/26 00:07:13;;;;;;;1.77;0.90;;;;;;;28.56;47.00;98395.91;2103331;28;20085;-48
2022/08/26 00:08:15;;;;;;;0.80;0.80;;;;;;;28.54;47.02;98387.97;2087361;28;20169;-49
2022/08/26 00:09:16;;;;;;;1.23;1.13;;;;;;;28.53;46.85;98386.34;2096540;28;20056;-47
2022/08/26 00:10:19;;;;;;;2.30;1.23;;;;;;;28.54;46.73;98393.44;2097971;28;20074;-48
2022/08/26 00:11:20;;;;;;;0.90;0.80;;;;;;;28.52;46.90;98395.59;2099193;28;20044;-47
2022/08/26 00:12:22;;;;;;;0.88;0.75;;;;;;;28.52;47.06;98398.34;2095425;28;20044;-48
2022/08/26 00:13:23;;;;;;;1.25;0.90;;;;;;;28.54;46.94;98392.63;2097118;28;20040;-48
2022/08/26 00:14:26;;;;;;;1.00;0.90;;;;;;;28.55;46.87;98395.06;2094151;28;20412;-45
2022/08/26 00:15:27;;;;;;;0.95;0.85;;;;;;;28.52;46.87;98390.16;2097490;28;20058;-48
2022/08/26 00:16:30;;;;;;;2.75;0.52;;;;;;;28.55;46.66;98391.50;2096346;28;20048;-49
2022/08/26 00:17:30;;;;;;;1.27;0.85;;;;;;;28.54;47.15;98389.88;2098034;28;20063;-47
2022/08/26 00:18:32;;;;;;;1.13;0.85;;;;;;;28.52;47.23;98392.88;2096619;28;20048;-47
2022/08/26 00:19:33;;;;;;;1.45;1.20;;;;;;;28.51;47.04;98396.72;2098221;28;20049;-47
2022/08/26 00:20:36;;;;;;;1.00;0.93;;;;;;;28.54;46.90;98387.97;2095856;28;20044;-49
2022/08/26 00:21:38;;;;;;;1.00;0.85;;;;;;;28.51;46.84;98392.06;2099597;28;20040;-48
2022/08/26 00:22:41;;;;;;;1.98;0.88;;;;;;;28.52;46.98;98390.97;2098758;28;20040;-49
2022/08/26 00:23:42;;;;;;;1.20;1.10;;;;;;;28.48;47.09;98386.34;2097873;28;20051;-47
2022/08/26 00:24:44;;;;;;;1.23;0.98;;;;;;;28.51;46.77;98392.06;2097944;28;20044;-47
2022/08/26 00:25:44;;;;;;;0.85;0.82;;;;;;;28.52;46.97;98390.97;2096981;28;20044;-47
2022/08/26 00:26:47;;;;;;;0.90;0.90;;;;;;;28.50;47.11;98386.88;2096151;28;20059;-46
2022/08/26 00:27:48;;;;;;;1.00;0.90;;;;;;;28.52;47.17;98387.41;2098573;28;20047;-48
2022/08/26 00:28:50;;;;;;;1.13;0.80;;;;;;;28.51;46.90;98383.88;2096795;28;20048;-45
2022/08/26 00:29:51;;;;;;;1.40;0.90;;;;;;;28.51;46.95;98389.34;2095761;28;20079;-46
2022/08/26 00:30:53;;;;;;;1.00;0.90;;;;;;;28.53;47.03;98391.81;2095896;28;20481;-47
2022/08/26 00:31:54;;;;;;;1.30;1.20;;;;;;;28.53;46.95;98386.34;2097797;28;20490;-48
2022/08/26 00:32:57;;;;;;;1.30;0.80;;;;;;;28.53;47.08;98394.53;2096215;28;20052;-48
2022/08/26 00:33:58;;;;;;;1.10;1.00;;;;;;;28.50;46.88;98387.72;2096211;28;20048;-48
2022/08/26 00:35:00;;;;;;;0.80;0.80;;;;;;;28.54;47.00;98387.97;2099393;28;20053;-48
2022/08/26 00:36:01;;;;;;;1.27;1.05;;;;;;;28.51;47.04;98392.06;2096635;28;20060;-48
2022/08/26 00:37:05;;;;;;;1.08;0.80;;;;;;;28.53;47.01;98386.34;2097099;28;20062;-47
2022/08/26 00:38:06;;;;;;;1.67;1.02;;;;;;;28.52;46.92;98381.97;2096401;28;20651;-47
2022/08/26 00:39:09;;;;;;;1.65;1.10;;;;;;;28.52;47.09;98379.22;2094827;28;20052;-48
2022/08/26 00:40:15;;;;;;;2.08;0.90;;;;;;;28.52;47.02;98385.50;2097068;28;20490;-48
2022/08/26 00:41:19;;;;;;;1.10;1.05;;;;;;;28.49;47.04;98380.59;2096221;28;20056;-47
2022/08/26 00:42:20;;;;;;;1.70;0.93;;;;;;;28.52;47.04;98384.69;2098157;28;20690;-46
2022/08/26 00:43:22;;;;;;;1.10;0.80;;;;;;;28.52;47.20;98380.03;2100916;28;20067;-47
2022/08/26 00:44:23;;;;;;;1.33;0.85;;;;;;;28.51;47.00;98377.63;2098295;28;20047;-48
2022/08/26 00:45:25;;;;;;;1.42;1.00;;;;;;;28.51;46.95;98383.88;2095619;28;20147;-47
2022/08/26 00:46:28;;;;;;;1.20;0.95;;;;;;;28.50;47.05;98384.13;2099468;28;20395;-49
2022/08/26 00:47:34;;;;;;;0.73;0.70;;;;;;;28.48;47.31;98378.97;2096126;28;20048;-50
2022/08/26 00:48:37;;;;;;;1.50;1.40;;;;;;;28.52;47.09;98379.22;2098917;28;20055;-46
2022/08/26 00:49:43;;;;;;;1.02;0.85;;;;;;;28.51;47.14;98381.16;2098767;28;20068;-47
2022/08/26 00:50:51;;;;;;;1.85;0.82;;;;;;;28.50;46.97;98381.41;2096935;28;20525;-48
2022/08/26 00:51:56;;;;;;;2.25;0.88;;;;;;;28.51;47.08;98380.34;2097291;28;20442;-47
2022/08/26 00:53:02;;;;;;;1.77;1.00;;;;;;;28.51;47.18;98383.06;2097304;28;20056;-49
2022/08/26 00:54:06;;;;;;;1.33;0.80;;;;;;;28.51;47.26;98383.88;2096547;28;20109;-47
2022/08/26 00:55:14;;;;;;;1.15;1.05;;;;;;;28.51;46.98;98380.34;2100660;28;20117;-47
2022/08/26 00:56:19;;;;;;;0.90;0.77;;;;;;;28.50;47.15;98378.69;2095709;28;20044;-48
2022/08/26 00:57:22;;;;;;;1.65;1.17;;;;;;;28.51;47.05;98374.88;2097735;28;20050;-47
2022/08/26 00:58:25;;;;;;;0.82;0.70;;;;;;;28.51;47.26;98374.88;2096019;28;20647;-48
2022/08/26 00:59:28;;;;;;;0.82;0.77;;;;;;;28.52;47.11;98376.50;2095392;28;21410;-47
2022/08/26 01:00:31;;;;;;;0.82;0.82;;;;;;;28.51;47.13;98377.63;2095582;28;20128;-47
2022/08/26 01:01:33;;;;;;;0.68;0.50;;;;;;;28.51;47.20;98378.41;2098520;28;20465;-47
2022/08/26 01:02:34;;;;;;;1.15;0.85;;;;;;;28.50;47.24;98376.81;2095839;28;20738;-47
2022/08/26 01:03:38;;;;;;;1.48;0.80;;;;;;;28.49;47.19;98368.88;2094965;28;20498;-47
2022/08/26 01:04:39;;;;;;;0.93;0.82;;;;;;;28.50;47.08;98374.06;2095070;28;20049;-47
2022/08/26 01:05:42;;;;;;;0.65;0.65;;;;;;;28.51;47.07;98374.88;2096175;28;20040;-48
2022/08/26 01:06:43;;;;;;;1.20;1.10;;;;;;;28.50;47.16;98373.22;2096906;28;20051;-47
2022/08/26 01:07:45;;;;;;;1.02;0.80;;;;;;;28.50;47.04;98371.34;2101046;28;20578;-48
2022/08/26 01:08:48;;;;;;;1.42;1.33;;;;;;;28.50;47.25;98375.97;2097809;28;20044;-46
2022/08/26 01:09:49;;;;;;;2.10;1.33;;;;;;;28.52;47.06;98376.50;2097422;28;20049;-47
2022/08/26 01:10:51;;;;;;;1.00;0.90;;;;;;;28.52;46.92;98374.59;2097092;28;20525;-48
2022/08/26 01:11:57;;;;;;;1.75;1.17;;;;;;;28.52;47.04;98369.13;2099519;28;20052;-46
2022/08/26 01:13:02;;;;;;;1.10;0.88;;;;;;;28.51;47.02;98367.50;2095734;28;20053;-48
2022/08/26 01:14:06;;;;;;;0.70;0.70;;;;;;;28.49;47.13;98366.97;2104822;28;20085;-47
2022/08/26 01:15:09;;;;;;;1.10;1.00;;;;;;;28.51;47.15;98369.44;2104013;27;20518;-46
2022/08/26 01:16:14;;;;;;;2.40;1.15;;;;;;;28.50;47.32;98370.50;2106008;28;20051;-48
2022/08/26 01:17:15;;;;;;;0.85;0.80;;;;;;;28.46;46.92;98370.25;2106513;27;20537;-48
2022/08/26 01:18:18;;;;;;;1.38;0.80;;;;;;;28.47;47.21;98360.97;2104944;27;20104;-48
2022/08/26 01:19:23;;;;;;;1.25;1.15;;;;;;;28.49;46.90;98366.16;2105168;28;20039;-47
2022/08/26 01:20:32;;;;;;;1.02;0.90;;;;;;;28.50;47.26;98359.59;2104414;28;20048;-47
2022/08/26 01:21:39;;;;;;;1.15;1.05;;;;;;;28.47;47.28;98371.06;2106179;28;20054;-45
2022/08/26 01:22:53;;;;;;;1.08;0.80;;;;;;;28.46;47.17;98364.78;2103953;28;20044;-47
2022/08/26 01:23:55;;;;;;;0.90;0.90;;;;;;;28.47;47.15;98365.59;2106303;27;20063;-47
2022/08/26 01:24:59;;;;;;;1.98;1.00;;;;;;;28.47;47.42;98366.44;2103584;28;20055;-51
2022/08/26 01:26:03;;;;;;;1.17;1.08;;;;;;;28.48;47.05;98359.88;2108823;27;20043;-48
2022/08/26 01:27:09;;;;;;;1.00;0.77;;;;;;;28.46;47.21;98370.25;2103285;28;20051;-48
2022/08/26 01:28:15;;;;;;;1.13;1.02;;;;;;;28.48;47.36;98361.78;2106047;28;20520;-47
2022/08/26 01:29:19;;;;;;;1.80;1.05;;;;;;;28.47;47.13;98371.06;2109417;28;20058;-48
2022/08/26 01:30:20;;;;;;;1.45;1.33;;;;;;;28.45;47.31;98368.63;2105533;28;20075;-47
2022/08/26 01:31:25;;;;;;;0.77;0.77;;;;;;;28.46;47.15;98363.97;2103072;28;20051;-46
2022/08/26 01:32:27;;;;;;;0.70;0.70;;;;;;;28.49;46.96;98363.41;2106535;28;20055;-46
2022/08/26 01:33:36;;;;;;;1.55;1.08;;;;;;;28.48;47.33;98367.25;2105123;28;20054;-46
2022/08/26 01:34:37;;;;;;;1.05;0.95;;;;;;;28.47;47.38;98368.31;2104567;28;20047;-47
2022/08/26 01:35:40;;;;;;;1.17;0.93;;;;;;;28.48;47.34;98367.25;2106619;28;20044;-49
2022/08/26 01:36:41;;;;;;;1.42;0.90;;;;;;;28.49;47.16;98366.97;2106390;27;20043;-47
2022/08/26 01:37:45;;;;;;;1.38;0.82;;;;;;;28.47;47.12;98371.06;2103852;27;20051;-48
2022/08/26 01:38:46;;;;;;;1.20;0.90;;;;;;;28.46;47.26;98366.69;2104010;28;20052;-46
2022/08/26 01:39:50;;;;;;;1.02;0.98;;;;;;;28.47;47.06;98377.34;2103133;28;20547;-48
2022/08/26 01:40:51;;;;;;;1.55;1.05;;;;;;;28.48;47.24;98364.53;2105191;28;20105;-47
2022/08/26 01:41:56;;;;;;;2.13;0.90;;;;;;;28.46;47.45;98369.44;2106097;27;20590;-48
2022/08/26 01:43:00;;;;;;;1.25;1.05;;;;;;;28.46;47.20;98366.69;2103048;28;20390;-48
2022/08/26 01:44:04;;;;;;;0.80;0.80;;;;;;;28.45;47.35;98371.34;2108624;28;20101;-48
2022/08/26 01:45:11;;;;;;;1.38;1.00;;;;;;;28.46;47.31;98372.97;2103484;28;20421;-48
2022/08/26 01:46:14;;;;;;;2.50;1.17;;;;;;;28.46;47.06;98364.78;2107826;28;20575;-47
2022/08/26 01:47:16;;;;;;;1.70;1.10;;;;;;;28.43;47.40;98359.88;2109178;28;20048;-46
2022/08/26 01:48:23;;;;;;;0.75;0.75;;;;;;;28.46;47.40;98369.44;2103498;28;20565;-47
2022/08/26 01:49:25;;;;;;;2.10;1.35;;;;;;;28.45;47.23;98368.63;2106521;28;20506;-47
2022/08/26 01:50:31;;;;;;;0.98;0.93;;;;;;;28.47;47.23;98365.59;2107553;28;20104;-48
2022/08/26 01:51:35;;;;;;;1.02;0.93;;;;;;;28.48;47.33;98367.25;2105681;28;20592;-48
2022/08/26 01:52:41;;;;;;;1.38;0.98;;;;;;;28.46;47.30;98367.50;2107284;28;20047;-48
2022/08/26 01:53:45;;;;;;;1.17;0.90;;;;;;;28.47;47.17;98360.13;2107159;27;20052;-46
2022/08/26 01:54:46;;;;;;;0.60;0.60;;;;;;;28.47;47.38;98366.44;2107738;28;20517;-46
2022/08/26 01:55:52;;;;;;;1.13;1.02;;;;;;;28.49;47.26;98363.41;2107127;27;20050;-47
2022/08/26 01:56:54;;;;;;;0.93;0.82;;;;;;;28.48;47.29;98370.78;2103297;28;20077;-47
2022/08/26 01:57:57;;;;;;;2.45;1.40;;;;;;;28.47;47.37;98366.44;2104677;28;20074;-48
2022/08/26 01:59:01;;;;;;;1.20;0.90;;;;;;;28.45;47.25;98365.88;2103801;28;20048;-48
2022/08/26 02:00:08;;;;;;;2.10;1.10;;;;;;;28.44;47.25;98363.41;2105720;27;20056;-47
2022/08/26 02:01:09;;;;;;;1.15;0.85;;;;;;;28.45;47.29;98368.63;2103560;28;20056;-46
2022/08/26 02:02:11;;;;;;;2.30;0.98;;;;;;;28.47;47.20;98368.31;2106218;28;20083;-47
2022/08/26 02:03:20;;;;;;;0.70;0.70;;;;;;;28.45;47.23;98365.06;2105515;27;20117;-49
2022/08/26 02:04:29;;;;;;;0.82;0.73;;;;;;;28.44;47.37;98364.22;2106244;28;20097;-48
2022/08/26 02:05:29;;;;;;;1.05;0.90;;;;;;;28.43;47.41;98364.53;2104748;28;21068;-47
2022/08/26 02:06:32;;;;;;;2.25;0.90;;;;;;;28.44;47.38;98371.59;2107227;28;20088;-48
2022/08/26 02:07:33;;;;;;;1.65;1.35;;;;;;;28.44;47.30;98366.97;2104353;28;20044;-47
2022/08/26 02:08:39;;;;;;;0.75;0.75;;;;;;;28.45;47.17;98367.81;2108202;28;20049;-48
2022/08/26 02:09:41;;;;;;;1.23;1.00;;;;;;;28.45;47.53;98367.81;2104185;28;20055;-46
2022/08/26 02:10:43;;;;;;;1.50;1.10;;;;;;;28.45;47.50;98363.16;2105168;28;20097;-49
2022/08/26 02:11:44;;;;;;;0.70;0.70;;;;;;;28.46;47.13;98361.25;2103672;28;20039;-46
2022/08/26 02:12:46;;;;;;;1.33;0.93;;;;;;;28.44;47.23;98361.50;2106626;27;20059;-46
2022/08/26 02:13:50;;;;;;;1.05;0.90;;;;;;;28.46;47.12;98372.97;2104790;27;20048;-46
2022/08/26 02:14:55;;;;;;;1.42;0.70;;;;;;;28.47;47.45;98371.06;2108618;28;20043;-47
2022/08/26 02:15:57;;;;;;;1.15;0.80;;;;;;;28.46;47.16;98364.78;2102914;28;20051;-48
2022/08/26 02:16:59;;;;;;;1.10;1.00;;;;;;;28.45;47.28;98368.63;2103976;28;20118;-47
2022/08/26 02:18:04;;;;;;;1.17;0.70;;;;;;;28.45;47.35;98363.16;2104649;28;20136;-47
2022/08/26 02:19:08;;;;;;;0.70;0.60;;;;;;;28.46;47.18;98359.31;2104362;28;20048;-47
2022/08/26 02:20:11;;;;;;;2.88;1.10;;;;;;;28.45;47.52;98365.06;2104858;27;20056;-47
2022/08/26 02:21:13;;;;;;;0.63;0.63;;;;;;;28.47;47.42;98360.13;2103601;28;20055;-46
2022/08/26 02:22:18;;;;;;;2.17;0.90;;;;;;;28.46;47.32;98359.31;2103935;28;20498;-47
2022/08/26 02:23:20;;;;;;;1.10;1.00;;;;;;;28.45;47.24;98365.06;2105606;27;20089;-48
2022/08/26 02:24:23;;;;;;;1.27;1.00;;;;;;;28.46;47.20;98363.97;2103847;28;20044;-47
2022/08/26 02:25:31;;;;;;;0.93;0.82;;;;;;;28.46;47.40;98358.53;2104905;28;20081;-48
2022/08/26 02:26:31;;;;;;;1.08;0.73;;;;;;;28.43;47.38;98364.53;2108289;27;20048;-47
2022/08/26 02:27:36;;;;;;;0.60;0.52;;;;;;;28.43;47.22;98361.81;2106250;28;20050;-47
2022/08/26 02:28:41;;;;;;;1.55;0.90;;;;;;;28.44;47.40;98360.69;2109566;28;20413;-47
2022/08/26 02:29:48;;;;;;;1.35;1.13;;;;;;;28.45;47.21;98357.72;2103228;27;20047;-48
2022/08/26 02:30:49;;;;;;;2.17;1.08;;;;;;;28.44;47.37;98357.97;2105547;28;20064;-46
2022/08/26 02:31:51;;;;;;;1.23;1.08;;;;;;;28.44;47.48;98357.97;2107521;27;20500;-46
2022/08/26 02:32:53;;;;;;;0.90;0.63;;;;;;;28.44;47.31;98349.78;2103215;28;20054;-47
2022/08/26 02:33:55;;;;;;;1.00;0.75;;;;;;;28.45;47.15;98351.44;2104334;28;20040;-46
2022/08/26 02:34:56;;;;;;;0.85;0.85;;;;;;;28.45;47.36;98354.97;2103514;28;20056;-47
2022/08/26 02:35:59;;;;;;;1.10;1.00;;;;;;;28.42;47.47;98349.22;2104305;27;20426;-47
2022/08/26 02:37:03;;;;;;;1.60;1.30;;;;;;;28.43;47.54;98354.44;2110545;28;20075;-48
2022/08/26 02:38:07;;;;;;;0.80;0.80;;;;;;;28.41;47.46;98345.66;2105802;27;20058;-46
2022/08/26 02:39:08;;;;;;;1.45;0.85;;;;;;;28.41;47.62;98347.56;2107128;28;20047;-46
2022/08/26 02:40:13;;;;;;;2.08;1.20;;;;;;;28.42;47.24;98347.34;2103552;28;20054;-47
2022/08/26 02:41:15;;;;;;;2.70;0.85;;;;;;;28.42;47.45;98349.22;2105880;28;20048;-47
2022/08/26 02:42:17;;;;;;;0.90;0.90;;;;;;;28.42;47.42;98344.63;2105970;28;20590;-47
2022/08/26 02:43:17;;;;;;;1.35;0.90;;;;;;;28.44;47.41;98341.59;2104823;28;20043;-45
2022/08/26 02:44:19;;;;;;;1.50;0.90;;;;;;;28.44;47.48;98344.31;2103317;27;20058;-46
2022/08/26 02:45:20;;;;;;;0.90;0.80;;;;;;;28.42;47.62;98346.50;2109024;28;20497;-46
2022/08/26 02:46:22;;;;;;;1.52;1.00;;;;;;;28.44;47.53;98344.31;2104261;27;20147;-47
2022/08/26 02:47:24;;;;;;;1.67;0.98;;;;;;;28.43;47.71;98345.44;2105549;28;20054;-47
2022/08/26 02:48:26;;;;;;;1.45;1.00;;;;;;;28.44;47.34;98347.06;2108998;28;20075;-47
2022/08/26 02:49:29;;;;;;;1.10;0.75;;;;;;;28.41;47.38;98339.41;2105842;28;20058;-47
2022/08/26 02:50:31;;;;;;;0.82;0.73;;;;;;;28.41;47.47;98333.94;2108128;28;20044;-45
2022/08/26 02:51:32;;;;;;;2.15;1.52;;;;;;;28.44;47.68;98341.59;2103195;28;20048;-46
2022/08/26 02:52:34;;;;;;;0.90;0.85;;;;;;;28.43;47.33;98335.34;2106928;27;20066;-48
2022/08/26 02:53:35;;;;;;;0.93;0.88;;;;;;;28.44;47.63;98336.13;2105516;28;20048;-48
2022/08/26 02:54:37;;;;;;;1.42;0.98;;;;;;;28.43;47.33;98331.78;2095011;28;20048;-47
2022/08/26 02:55:41;;;;;;;1.13;0.85;;;;;;;28.41;47.55;98334.75;2104113;28;20052;-48
2022/08/26 02:56:45;;;;;;;0.80;0.60;;;;;;;28.42;47.28;98339.16;2106727;28;20131;-48
2022/08/26 02:57:45;;;;;;;0.90;0.90;;;;;;;28.43;47.32;98332.59;2103904;28;20055;-48
2022/08/26 02:58:47;;;;;;;0.82;0.73;;;;;;;28.44;47.45;98336.13;2104821;28;20039;-47
2022/08/26 02:59:48;;;;;;;1.25;0.73;;;;;;;28.43;47.63;98334.53;2105175;28;20048;-47
2022/08/26 03:00:51;;;;;;;1.17;0.90;;;;;;;28.40;47.57;98332.31;2104055;28;20047;-47
2022/08/26 03:01:52;;;;;;;1.02;0.93;;;;;;;28.44;47.27;98333.41;2104681;28;20048;-48
2022/08/26 03:02:54;;;;;;;1.05;0.95;;;;;;;28.42;47.39;98324.69;2105651;28;20096;-46
2022/08/26 03:03:56;;;;;;;1.95;0.85;;;;;;;28.44;47.68;98327.97;2104048;28;21113;-48
2022/08/26 03:04:58;;;;;;;0.95;0.88;;;;;;;28.43;47.38;98323.59;2108390;28;20052;-49
2022/08/26 03:05:59;;;;;;;0.98;0.98;;;;;;;28.44;47.51;98330.69;2104593;28;20047;-48
2022/08/26 03:07:01;;;;;;;0.80;0.70;;;;;;;28.43;47.44;98323.59;2103915;28;20044;-48
2022/08/26 03:08:03;;;;;;;1.77;1.05;;;;;;;28.43;47.63;98327.16;2103396;28;20051;-46
2022/08/26 03:09:06;;;;;;;1.02;0.85;;;;;;;28.42;47.66;98325.53;2103708;28;20409;-46
2022/08/26 03:10:07;;;;;;;1.08;1.05;;;;;;;28.41;47.34;98326.56;2104038;28;20048;-47
2022/08/26 03:11:09;;;;;;;0.77;0.77;;;;;;;28.40;47.63;98324.94;2105618;28;20047;-47
2022/08/26 03:12:12;;;;;;;1.17;0.82;;;;;;;28.42;47.60;98327.41;2103906;27;20445;-47
2022/08/26 03:13:13;;;;;;;1.48;0.93;;;;;;;28.39;47.49;98317.88;2104362;28;20055;-47
2022/08/26 03:14:14;;;;;;;1.17;1.08;;;;;;;28.40;47.51;98314.03;2104362;28;20048;-46
2022/08/26 03:15:18;;;;;;;1.02;0.85;;;;;;;28.41;47.35;98312.13;2106454;28;20396;-47
2022/08/26 03:16:19;;;;;;;1.58;1.05;;;;;;;28.41;47.83;98312.94;2106116;28;20048;-45
2022/08/26 03:17:21;;;;;;;1.35;0.98;;;;;;;28.42;47.42;98319.22;2105441;28;20054;-46
2022/08/26 03:18:22;;;;;;;0.98;0.88;;;;;;;28.42;47.52;98320.06;2109445;28;20043;-46
2022/08/26 03:19:25;;;;;;;1.10;0.70;;;;;;;28.43;47.34;98320.88;2105243;28;20075;-48
2022/08/26 03:20:26;;;;;;;0.57;0.57;;;;;;;28.41;47.60;98321.13;2103588;28;20044;-49
2022/08/26 03:21:28;;;;;;;0.90;0.80;;;;;;;28.41;47.42;98323.03;2105388;28;20127;-46
2022/08/26 03:22:29;;;;;;;0.98;0.82;;;;;;;28.40;47.60;98311.31;2106775;28;20046;-47
2022/08/26 03:23:31;;;;;;;1.20;1.10;;;;;;;28.42;47.38;98316.50;2103002;28;20052;-46
2022/08/26 03:24:32;;;;;;;1.25;0.95;;;;;;;28.43;47.60;98320.88;2104433;28;20044;-46
2022/08/26 03:25:33;;;;;;;0.93;0.93;;;;;;;28.42;47.69;98314.63;2100836;28;20666;-48
2022/08/26 03:26:34;;;;;;;0.80;0.60;;;;;;;28.40;47.46;98315.94;2105056;27;20048;-47
2022/08/26 03:27:38;;;;;;;0.75;0.75;;;;;;;28.40;47.53;98314.03;2105142;27;20163;-49
2022/08/26 03:30:38;;;;;;;1.10;1.00;;;;;;;28.42;47.53;98313.78;2104193;28;20051;-46
2022/08/26 03:31:19;;;;;;;1.30;0.90;;;;;;;28.38;47.89;98315.41;2108158;28;20031;-46
2022/08/26 03:32:21;;;;;;;1.20;1.10;;;;;;;28.39;47.77;98303.38;2106119;28;20150;-46
2022/08/26 03:33:22;;;;;;;1.13;1.02;;;;;;;28.40;47.85;98315.94;2106708;28;20074;-51
2022/08/26 03:34:24;;;;;;;0.93;0.88;;;;;;;28.40;47.64;98310.50;2109406;28;20071;-47
2022/08/26 03:35:25;;;;;;;0.98;0.85;;;;;;;28.39;47.68;98306.09;2112363;28;20048;-47
2022/08/26 03:36:27;;;;;;;2.30;0.93;;;;;;;28.42;47.40;98305.59;2105773;27;20120;-46
2022/08/26 03:37:28;;;;;;;1.38;0.88;;;;;;;28.40;47.61;98311.31;2105263;27;20052;-46
2022/08/26 03:38:30;;;;;;;0.88;0.82;;;;;;;28.42;47.75;98311.03;2107898;27;20043;-49
2022/08/26 03:39:31;;;;;;;0.98;0.93;;;;;;;28.41;47.43;98301.19;2106483;28;20052;-47
2022/08/26 03:40:33;;;;;;;1.92;1.55;;;;;;;28.41;47.58;98304.75;2106083;28;20070;-45
2022/08/26 03:41:35;;;;;;;0.93;0.82;;;;;;;28.40;47.58;98308.56;2107306;28;20572;-45
2022/08/26 03:42:40;;;;;;;0.80;0.80;;;;;;;28.38;47.66;98296.31;2106496;28;20048;-50
2022/08/26 03:43:40;;;;;;;1.95;1.05;;;;;;;28.37;47.62;98306.41;2111359;27;20044;-46
2022/08/26 03:44:42;;;;;;;1.15;1.05;;;;;;;28.40;47.79;98299.59;2106367;28;20044;-48
2022/08/26 03:45:44;;;;;;;1.42;0.80;;;;;;;28.40;47.55;98305.03;2105131;28;20391;-47
2022/08/26 03:46:46;;;;;;;1.05;0.85;;;;;;;28.39;47.50;98300.66;2108412;27;20421;-45
2022/08/26 03:47:47;;;;;;;0.93;0.65;;;;;;;28.38;47.79;98299.03;2110183;28;20054;-47
2022/08/26 03:48:49;;;;;;;0.75;0.75;;;;;;;28.37;47.72;98300.13;2106905;27;20133;-49
2022/08/26 03:49:49;;;;;;;1.05;0.70;;;;;;;28.35;47.56;98305.84;2107254;28;20051;-48
2022/08/26 03:50:51;;;;;;;0.73;0.73;;;;;;;28.35;47.57;98300.41;2106923;28;20123;-45
2022/08/26 03:51:52;;;;;;;1.27;1.10;;;;;;;28.35;47.75;98296.84;2105326;28;20056;-46
2022/08/26 03:52:55;;;;;;;1.80;1.00;;;;;;;28.37;47.51;98297.41;2105115;27;20048;-50
2022/08/26 03:53:56;;;;;;;1.63;1.00;;;;;;;28.35;47.52;98307.78;2104354;28;20072;-47
2022/08/26 03:54:58;;;;;;;0.82;0.80;;;;;;;28.34;47.30;98300.69;2096084;27;20075;-50
2022/08/26 03:55:58;;;;;;;1.15;0.93;;;;;;;28.35;47.50;98303.13;2104980;27;20047;-47
2022/08/26 03:57:00;;;;;;;0.70;0.68;;;;;;;28.36;47.52;98303.94;2110354;27;20108;-48
2022/08/26 03:58:03;;;;;;;1.15;0.90;;;;;;;28.36;47.59;98303.94;2106910;27;20096;-47
2022/08/26 03:59:06;;;;;;;1.13;1.02;;;;;;;28.35;47.43;98310.50;2104164;28;20048;-48
2022/08/26 04:00:11;;;;;;;0.95;0.95;;;;;;;28.33;47.58;98302.56;2109259;28;20050;-49
2022/08/26 04:01:14;;;;;;;0.90;0.80;;;;;;;28.33;47.33;98299.03;2104704;27;20075;-45
2022/08/26 04:02:16;;;;;;;2.03;0.95;;;;;;;28.33;47.59;98305.31;2107294;28;20459;-47
2022/08/26 04:03:56;;;;;;;0.90;0.90;;;;;;;28.32;47.38;98308.31;2104750;27;20055;-46
2022/08/26 04:04:40;;;;;;;1.17;0.85;;;;;;;28.28;47.59;98308.88;2108322;27;20520;-49
2022/08/26 04:05:41;;;;;;;1.55;1.02;;;;;;;28.30;47.66;98311.31;2107069;28;20051;-49
2022/08/26 04:06:43;;;;;;;0.82;0.80;;;;;;;28.31;47.39;98312.16;2105424;28;20062;-49
2022/08/26 04:07:45;;;;;;;1.02;0.80;;;;;;;28.28;47.44;98308.88;2110297;28;20052;-45
2022/08/26 04:08:46;;;;;;;2.05;0.82;;;;;;;28.30;47.31;98303.13;2109743;28;20051;-47
2022/08/26 04:09:48;;;;;;;1.42;0.80;;;;;;;28.29;47.53;98305.03;2105246;27;20044;-47
2022/08/26 04:10:49;;;;;;;1.05;0.80;;;;;;;28.28;47.70;98299.88;2107005;28;20047;-49
2022/08/26 04:11:51;;;;;;;0.95;0.90;;;;;;;28.31;47.40;98302.06;2105708;28;20580;-49
2022/08/26 04:12:52;;;;;;;2.47;0.95;;;;;;;28.28;47.29;98303.41;2109171;27;20051;-47
2022/08/26 04:13:55;;;;;;;2.38;1.20;;;;;;;28.27;47.55;98299.03;2104302;28;20062;-46
2022/08/26 04:14:56;;;;;;;0.90;0.77;;;;;;;28.31;47.40;98302.06;2105506;28;20071;-49
2022/08/26 04:15:58;;;;;;;1.23;1.00;;;;;;;28.28;47.44;98297.16;2094958;28;20056;-45
2022/08/26 04:17:00;;;;;;;1.65;1.30;;;;;;;28.26;47.58;98294.69;2096796;28;20044;-47
2022/08/26 04:18:02;;;;;;;1.15;0.90;;;;;;;28.27;47.47;98300.97;2102801;28;20060;-46
2022/08/26 04:19:03;;;;;;;3.35;0.75;;;;;;;28.31;47.28;98306.69;2095478;28;20045;-45
2022/08/26 04:20:06;;;;;;;0.65;0.65;;;;;;;28.27;47.36;98301.78;2095835;28;21109;-47
2022/08/26 04:21:07;;;;;;;1.38;0.90;;;;;;;28.26;47.36;98299.34;2098450;28;20071;-48
2022/08/26 04:22:09;;;;;;;1.70;0.95;;;;;;;28.27;47.35;98300.97;2100302;28;20418;-48
2022/08/26 04:23:10;;;;;;;2.05;0.93;;;;;;;28.28;47.44;98300.69;2096547;28;20048;-47
2022/08/26 04:24:14;;;;;;;0.95;0.80;;;;;;;28.27;47.51;98295.50;2096667;28;20059;-50
2022/08/26 04:25:15;;;;;;;1.90;0.82;;;;;;;28.27;47.32;98300.97;2097224;28;20059;-47
2022/08/26 04:26:18;;;;;;;1.13;1.02;;;;;;;28.27;47.41;98301.78;2095102;28;20490;-49
2022/08/26 04:27:20;;;;;;;1.10;1.00;;;;;;;28.25;47.42;98295.78;2096346;28;20091;-50
2022/08/26 04:28:21;;;;;;;1.75;0.85;;;;;;;28.26;47.49;98300.16;2098315;28;20056;-48
2022/08/26 04:29:26;;;;;;;1.60;0.90;;;;;;;28.27;47.51;98296.31;2097550;28;20052;-48
2022/08/26 04:30:27;;;;;;;0.60;0.47;;;;;;;28.26;47.57;98299.34;2095255;28;20055;-47
2022/08/26 04:31:29;;;;;;;1.77;0.98;;;;;;;28.26;47.38;98294.69;2100985;28;20922;-48
2022/08/26 04:32:30;;;;;;;2.15;1.10;;;;;;;28.27;47.50;98290.06;2097565;28;20055;-48
2022/08/26 04:33:31;;;;;;;1.25;0.93;;;;;;;28.26;47.41;98296.59;2097733;28;20058;-46
2022/08/26 04:34:33;;;;;;;0.73;0.73;;;;;;;28.26;47.35;98297.41;2099659;28;20048;-48
2022/08/26 04:35:35;;;;;;;1.08;0.98;;;;;;;28.24;47.39;98290.59;2096306;28;20044;-49
2022/08/26 04:36:36;;;;;;;0.90;0.90;;;;;;;28.26;47.37;98291.16;2095327;28;20037;-46
2022/08/26 04:37:38;;;;;;;0.75;0.60;;;;;;;28.26;47.31;98299.34;2096549;28;20044;-48
2022/08/26 04:38:39;;;;;;;0.70;0.70;;;;;;;28.24;47.28;98302.31;2099215;28;20417;-49
2022/08/26 04:39:41;;;;;;;0.75;0.75;;;;;;;28.26;47.42;98296.59;2096572;28;20051;-46
2022/08/26 04:40:42;;;;;;;1.00;0.93;;;;;;;28.26;47.34;98299.34;2098831;28;20039;-48
2022/08/26 04:41:44;;;;;;;1.42;1.15;;;;;;;28.24;47.29;98301.50;2097039;28;20503;-48
2022/08/26 04:42:45;;;;;;;0.68;0.65;;;;;;;28.24;47.17;98304.25;2094942;28;20714;-47
2022/08/26 04:43:47;;;;;;;0.80;0.80;;;;;;;28.23;47.43;98303.44;2096859;28;20054;-48
2022/08/26 04:44:49;;;;;;;1.30;0.73;;;;;;;28.24;47.28;98301.50;2098646;28;20470;-47
2022/08/26 04:45:51;;;;;;;0.90;0.90;;;;;;;28.22;47.51;98298.22;2098138;28;20052;-49
2022/08/26 04:46:53;;;;;;;0.85;0.70;;;;;;;28.24;47.52;98298.78;2098033;28;20394;-48
2022/08/26 04:47:56;;;;;;;0.95;0.88;;;;;;;28.23;47.43;98300.69;2099353;28;20127;-53
2022/08/26 04:48:57;;;;;;;0.85;0.85;;;;;;;28.24;47.49;98306.97;2093901;28;20053;-48
2022/08/26 04:50:00;;;;;;;0.95;0.75;;;;;;;28.24;47.31;98304.25;2100045;28;20417;-48
2022/08/26 04:51:01;;;;;;;0.77;0.75;;;;;;;28.24;47.42;98305.06;2098885;28;20044;-48
2022/08/26 04:52:03;;;;;;;1.25;1.00;;;;;;;28.24;47.52;98306.97;2101547;28;20554;-48
2022/08/26 04:53:04;;;;;;;0.80;0.60;;;;;;;28.23;47.51;98310.78;2095766;28;20372;-47
2022/08/26 04:54:07;;;;;;;1.35;0.70;;;;;;;28.22;47.40;98298.22;2096744;28;20082;-48
2022/08/26 04:55:09;;;;;;;0.98;0.88;;;;;;;28.22;47.43;98309.16;2096395;28;20076;-47
2022/08/26 04:56:11;;;;;;;0.70;0.70;;;;;;;28.22;47.38;98303.69;2095109;28;20056;-46